Time;durP1;ratioP1;P1;durP2;ratioP2;P2;SDS_P1;SDS_P2;PMS_P1;PMS_P2;Temp;Humidity;BMP_temperature;BMP_pressure;BME280_temperature;BME280_humidity;BME280_pressure;Samples;Min_cycle;Max_cycle;Signal;HPM_P1;HPM_P2
2023/09/07 00:01:27;;;;;;;2.40;1.80;;;25.80;63.90;;;;;;5052470;28;20043;-82
2023/09/07 00:03:52;;;;;;;2.40;1.90;;;25.70;63.90;;;;;;5035459;28;20094;-82
2023/09/07 00:06:18;;;;;;;2.80;1.90;;;25.70;63.90;;;;;;5053631;28;20041;-81
2023/09/07 00:08:44;;;;;;;1.85;1.70;;;25.70;63.90;;;;;;5035723;28;20056;-81
2023/09/07 00:11:10;;;;;;;3.55;2.00;;;25.70;63.90;;;;;;5035977;28;20139;-81
2023/09/07 00:13:36;;;;;;;2.47;1.70;;;25.60;63.90;;;;;;5056098;28;20037;-81
2023/09/07 00:16:03;;;;;;;2.08;1.50;;;25.60;63.90;;;;;;5039904;28;20040;-82
2023/09/07 00:18:32;;;;;;;2.08;1.65;;;25.60;63.90;;;;;;5039998;28;20021;-81
2023/09/07 00:21:01;;;;;;;3.78;2.00;;;25.60;64.00;;;;;;5055900;28;20029;-81
2023/09/07 00:23:27;;;;;;;2.88;2.00;;;25.50;63.90;;;;;;5040349;28;20064;-82
2023/09/07 00:25:53;;;;;;;2.03;1.70;;;25.50;63.90;;;;;;5023247;28;20496;-82
2023/09/07 00:28:18;;;;;;;2.25;1.60;;;25.50;64.00;;;;;;5039367;28;20029;-81
2023/09/07 00:30:44;;;;;;;2.05;1.65;;;25.40;63.90;;;;;;5039227;28;20393;-81
2023/09/07 00:33:10;;;;;;;2.05;1.77;;;25.40;63.90;;;;;;5056011;28;20036;-81
2023/09/07 00:35:36;;;;;;;2.28;1.88;;;25.40;64.00;;;;;;5055254;28;20395;-82
2023/09/07 00:38:03;;;;;;;2.10;1.90;;;25.40;64.00;;;;;;5039474;28;20037;-81
2023/09/07 00:40:29;;;;;;;1.95;1.75;;;25.30;64.00;;;;;;5055707;28;20036;-81
2023/09/07 00:42:55;;;;;;;1.75;1.48;;;25.30;64.00;;;;;;5055409;28;20037;-81
2023/09/07 00:45:21;;;;;;;2.45;1.90;;;25.30;64.00;;;;;;5055907;28;20045;-80
2023/09/07 00:47:47;;;;;;;2.10;1.73;;;25.20;64.00;;;;;;5055653;28;20033;-81
2023/09/07 00:50:14;;;;;;;2.00;1.70;;;25.30;64.00;;;;;;5039110;28;20037;-81
2023/09/07 00:52:42;;;;;;;2.10;1.73;;;25.20;64.00;;;;;;5055551;28;20036;-82
2023/09/07 00:55:12;;;;;;;2.13;1.80;;;25.20;64.10;;;;;;5055501;28;20029;-80
2023/09/07 00:57:39;;;;;;;2.00;1.60;;;25.20;64.10;;;;;;5055602;28;20441;-82
2023/09/07 01:00:07;;;;;;;1.88;1.63;;;25.10;64.00;;;;;;5055274;28;20025;-81
2023/09/07 01:02:33;;;;;;;3.00;2.00;;;25.10;64.00;;;;;;5055596;28;20552;-81
2023/09/07 01:05:01;;;;;;;2.28;1.70;;;25.10;64.00;;;;;;5042393;28;20029;-80
2023/09/07 01:07:39;;;;;;;2.05;1.85;;;25.10;64.10;;;;;;5062164;28;20095;-80
2023/09/07 01:10:08;;;;;;;1.92;1.70;;;25.00;64.10;;;;;;5039267;28;20374;-81
2023/09/07 01:12:34;;;;;;;1.70;1.60;;;25.00;64.10;;;;;;5038424;28;20044;-81
2023/09/07 01:15:00;;;;;;;2.80;2.10;;;24.90;64.00;;;;;;5055455;28;20029;-81
2023/09/07 01:17:27;;;;;;;2.30;1.77;;;25.00;64.20;;;;;;5055100;28;20032;-81
2023/09/07 01:19:54;;;;;;;2.17;1.90;;;24.90;64.10;;;;;;5038954;28;20025;-81
2023/09/07 01:22:24;;;;;;;1.75;1.65;;;24.90;64.10;;;;;;5056153;28;20111;-81
2023/09/07 01:24:52;;;;;;;2.20;1.95;;;24.80;64.10;;;;;;5038485;28;20025;-81
2023/09/07 01:27:18;;;;;;;2.95;2.00;;;24.80;64.10;;;;;;5038275;28;20037;-81
2023/09/07 01:29:44;;;;;;;2.30;2.00;;;24.80;64.10;;;;;;5038473;28;20033;-81
2023/09/07 01:32:10;;;;;;;2.33;1.98;;;24.80;64.20;;;;;;5038996;28;20036;-81
2023/09/07 01:34:37;;;;;;;2.13;1.80;;;24.70;64.20;;;;;;5054962;28;20365;-80
2023/09/07 01:37:03;;;;;;;2.35;1.70;;;24.70;64.20;;;;;;5038133;28;20025;-81
2023/09/07 01:39:28;;;;;;;2.10;1.63;;;24.70;64.20;;;;;;5038110;28;20021;-82
2023/09/07 01:41:54;;;;;;;2.47;2.00;;;24.70;64.20;;;;;;5054868;28;20033;-81
2023/09/07 01:44:20;;;;;;;2.75;1.95;;;24.60;64.20;;;;;;5022777;28;20557;-81
2023/09/07 01:46:46;;;;;;;2.75;2.00;;;24.60;64.20;;;;;;5056323;28;20424;-81
2023/09/07 01:49:12;;;;;;;2.38;1.98;;;24.60;64.20;;;;;;5038924;28;20465;-81
2023/09/07 01:51:37;;;;;;;2.92;2.00;;;24.60;64.30;;;;;;5038090;28;20381;-81
2023/09/07 01:54:04;;;;;;;2.78;2.25;;;24.50;64.20;;;;;;5038184;28;20048;-81
2023/09/07 01:56:29;;;;;;;2.53;1.88;;;24.60;64.30;;;;;;5038020;28;20033;-82
2023/09/07 01:58:55;;;;;;;3.38;2.00;;;24.50;64.30;;;;;;5021561;28;20032;-81
2023/09/07 02:01:30;;;;;;;2.13;1.73;;;24.40;64.30;;;;;;5054529;28;20136;-81
2023/09/07 02:03:56;;;;;;;;;;;24.50;64.40;;;;;;5054975;28;20036;-81
2023/09/07 02:06:21;;;;;;;2.15;1.80;;;24.40;64.30;;;;;;5054222;28;19917;-81
2023/09/07 02:08:48;;;;;;;1.73;1.63;;;24.40;64.30;;;;;;5055037;28;20485;-80
2023/09/07 02:11:14;;;;;;;2.45;1.90;;;24.40;64.40;;;;;;5022060;28;20088;-81
2023/09/07 02:13:45;;;;;;;2.13;1.77;;;24.30;64.40;;;;;;5054275;28;20104;-81
2023/09/07 02:16:11;;;;;;;2.38;1.95;;;24.30;64.40;;;;;;5037973;28;20059;-81
2023/09/07 02:18:43;;;;;;;2.88;2.10;;;24.30;64.40;;;;;;5021288;28;20075;-81
2023/09/07 02:21:09;;;;;;;2.60;2.03;;;24.20;64.40;;;;;;5022706;28;20025;-81
2023/09/07 02:23:38;;;;;;;2.47;2.13;;;24.20;64.50;;;;;;5054330;28;20103;-80
2023/09/07 02:26:04;;;;;;;2.95;2.30;;;24.20;64.50;;;;;;5037625;28;20037;-81
2023/09/07 02:28:31;;;;;;;2.80;2.20;;;24.20;64.50;;;;;;5037642;28;20492;-81
2023/09/07 02:31:03;;;;;;;2.90;2.28;;;24.20;64.50;;;;;;5037422;28;20063;-81
2023/09/07 02:33:29;;;;;;;2.45;2.15;;;24.10;64.50;;;;;;5037465;28;20112;-81
2023/09/07 02:35:55;;;;;;;2.58;1.98;;;24.10;64.50;;;;;;5036957;28;20083;-81
2023/09/07 02:38:21;;;;;;;2.50;2.05;;;24.10;64.60;;;;;;5037939;28;20171;-81
2023/09/07 02:40:48;;;;;;;3.00;2.17;;;24.10;64.60;;;;;;5037739;28;20433;-81
2023/09/07 02:43:13;;;;;;;2.53;1.90;;;24.00;64.60;;;;;;5054335;28;20025;-81
2023/09/07 02:45:39;;;;;;;3.03;2.00;;;24.00;64.60;;;;;;5053068;28;20055;-82
2023/09/07 02:48:06;;;;;;;3.22;2.28;;;24.00;64.70;;;;;;5037009;28;20465;-81
2023/09/07 02:50:33;;;;;;;3.13;2.05;;;24.00;64.70;;;;;;5037114;28;20043;-81
2023/09/07 02:53:00;;;;;;;2.50;2.13;;;23.90;64.70;;;;;;5037118;28;20075;-81
2023/09/07 02:55:28;;;;;;;2.35;2.00;;;23.90;64.70;;;;;;5053783;28;20033;-81
2023/09/07 02:57:56;;;;;;;2.67;2.10;;;23.90;64.70;;;;;;5038986;28;20135;-81
2023/09/07 03:00:22;;;;;;;4.55;2.22;;;23.90;64.70;;;;;;5062178;28;20033;-81
2023/09/07 03:02:49;;;;;;;2.17;1.73;;;23.80;64.70;;;;;;5043555;28;20082;-81
2023/09/07 03:05:16;;;;;;;2.58;2.10;;;23.80;64.80;;;;;;5041313;28;20021;-81
2023/09/07 03:07:45;;;;;;;2.45;2.17;;;23.80;64.80;;;;;;5042952;28;20040;-81
2023/09/07 03:10:11;;;;;;;3.20;2.20;;;23.80;64.80;;;;;;5053376;28;20033;-81
2023/09/07 03:12:37;;;;;;;2.78;2.30;;;23.70;64.80;;;;;;5036166;28;20128;-80
2023/09/07 03:15:04;;;;;;;3.40;2.50;;;23.70;64.80;;;;;;5036662;28;20075;-81
2023/09/07 03:17:30;;;;;;;2.22;1.90;;;23.60;64.80;;;;;;5036640;28;20056;-81
2023/09/07 03:19:56;;;;;;;2.95;2.22;;;23.60;64.80;;;;;;5036758;28;20090;-81
2023/09/07 03:22:25;;;;;;;2.92;2.15;;;23.60;64.90;;;;;;5036537;28;20029;-81
2023/09/07 03:24:52;;;;;;;3.15;2.25;;;23.60;64.90;;;;;;5036751;28;20025;-81
2023/09/07 03:27:18;;;;;;;4.03;2.38;;;23.60;64.90;;;;;;5053363;28;20374;-80
2023/09/07 03:29:51;;;;;;;2.45;2.00;;;23.60;65.00;;;;;;5024656;28;20048;-81
2023/09/07 03:32:17;;;;;;;2.87;2.07;;;23.50;65.00;;;;;;5061173;28;20036;-81
2023/09/07 03:34:43;;;;;;;2.83;2.10;;;23.50;65.00;;;;;;5046524;28;20025;-82
2023/09/07 03:37:11;;;;;;;3.47;2.58;;;23.50;65.00;;;;;;5041316;28;20024;-81
2023/09/07 03:39:37;;;;;;;2.42;1.95;;;23.50;65.10;;;;;;5056396;28;20389;-81
2023/09/07 03:42:03;;;;;;;1.92;1.73;;;23.40;65.10;;;;;;5037206;28;20090;-81
2023/09/07 03:44:29;;;;;;;2.58;2.03;;;23.40;65.10;;;;;;5052244;28;20458;-81
2023/09/07 03:46:55;;;;;;;2.83;2.05;;;23.40;65.10;;;;;;5035477;28;20044;-82
2023/09/07 03:49:21;;;;;;;3.17;2.70;;;23.30;65.10;;;;;;5020118;28;20029;-82
2023/09/07 03:51:47;;;;;;;2.90;2.25;;;23.30;65.10;;;;;;5036050;28;20033;-81
2023/09/07 03:54:12;;;;;;;3.13;2.35;;;23.30;65.10;;;;;;5036590;28;20029;-82
2023/09/07 03:56:39;;;;;;;2.83;2.30;;;23.30;65.20;;;;;;5035941;28;20060;-83
2023/09/07 03:59:07;;;;;;;2.92;2.22;;;23.30;65.20;;;;;;5020412;28;20041;-82
2023/09/07 04:01:33;;;;;;;3.22;2.40;;;23.30;65.20;;;;;;5035744;28;20432;-82
2023/09/07 04:03:58;;;;;;;3.00;2.30;;;23.20;65.80;;;;;;5036543;28;20033;-83
2023/09/07 04:06:24;;;;;;;2.90;2.25;;;23.20;65.20;;;;;;5035725;28;20478;-81
2023/09/07 04:08:50;;;;;;;3.08;2.20;;;23.20;65.30;;;;;;5052111;28;20047;-82
2023/09/07 04:11:16;;;;;;;3.35;2.10;;;23.20;65.30;;;;;;5036537;28;20446;-82
2023/09/07 04:13:41;;;;;;;3.20;2.35;;;23.10;65.30;;;;;;5052356;28;20433;-81
2023/09/07 04:16:09;;;;;;;2.67;2.00;;;23.20;65.40;;;;;;5036522;28;20043;-82
2023/09/07 04:18:35;;;;;;;2.88;2.28;;;23.10;65.30;;;;;;5052983;28;20033;-82
2023/09/07 04:21:08;;;;;;;2.30;2.03;;;23.10;65.30;;;;;;5052961;28;20440;-82
2023/09/07 04:23:35;;;;;;;2.95;2.15;;;23.10;65.40;;;;;;5052660;28;20025;-82
2023/09/07 04:26:08;;;;;;;2.55;2.03;;;23.10;65.40;;;;;;5053494;28;20037;-80
2023/09/07 04:28:35;;;;;;;3.17;2.40;;;23.00;65.50;;;;;;5039252;28;20393;-82
2023/09/07 04:31:01;;;;;;;2.70;2.10;;;23.00;65.40;;;;;;5019754;28;20056;-81
2023/09/07 04:33:30;;;;;;;3.63;2.60;;;23.00;65.50;;;;;;5035699;28;20460;-82
2023/09/07 04:35:56;;;;;;;2.00;1.80;;;23.00;65.50;;;;;;5052300;28;20040;-82
2023/09/07 04:38:22;;;;;;;3.10;2.33;;;23.00;65.50;;;;;;5035538;28;20029;-82
2023/09/07 04:40:48;;;;;;;3.05;2.10;;;22.90;65.50;;;;;;5051943;28;20488;-81
2023/09/07 04:43:14;;;;;;;2.90;2.40;;;22.90;65.50;;;;;;5035337;28;20139;-82
2023/09/07 04:45:47;;;;;;;2.95;2.25;;;22.90;65.50;;;;;;5034918;28;20056;-82
2023/09/07 04:48:13;;;;;;;3.35;2.50;;;22.90;65.60;;;;;;5052761;28;20029;-82
2023/09/07 04:50:38;;;;;;;2.88;2.33;;;22.80;65.60;;;;;;5035281;28;20095;-81
2023/09/07 04:53:04;;;;;;;2.60;2.20;;;22.90;65.60;;;;;;5019021;28;20124;-82
2023/09/07 04:55:30;;;;;;;3.30;2.13;;;22.80;65.60;;;;;;5018830;28;20040;-82
2023/09/07 04:57:56;;;;;;;2.60;2.13;;;22.80;65.60;;;;;;5035729;28;20075;-81
2023/09/07 05:00:22;;;;;;;3.30;2.33;;;22.70;65.60;;;;;;5039168;28;20053;-82
2023/09/07 05:02:48;;;;;;;2.97;2.38;;;22.70;65.60;;;;;;5055492;28;20028;-82
2023/09/07 05:05:14;;;;;;;3.20;2.40;;;22.80;65.70;;;;;;5038976;28;20073;-83
2023/09/07 05:07:39;;;;;;;2.95;2.30;;;22.70;65.70;;;;;;5039187;28;20133;-81
2023/09/07 05:10:08;;;;;;;2.88;2.28;;;22.70;65.70;;;;;;5039295;28;20405;-82
2023/09/07 05:12:34;;;;;;;3.40;2.35;;;22.70;65.80;;;;;;5038648;28;20082;-82
2023/09/07 05:15:00;;;;;;;3.00;2.22;;;22.60;65.80;;;;;;5038781;28;20025;-81
2023/09/07 05:17:26;;;;;;;3.45;2.28;;;22.70;65.90;;;;;;5038431;28;20041;-81
2023/09/07 05:19:52;;;;;;;2.83;2.30;;;22.60;66.50;;;;;;5055943;28;20408;-81
2023/09/07 05:22:19;;;;;;;2.95;2.40;;;22.60;65.80;;;;;;5039439;28;20059;-81
2023/09/07 05:24:47;;;;;;;3.22;2.40;;;22.60;65.90;;;;;;5039647;28;20025;-81
2023/09/07 05:27:13;;;;;;;3.17;2.42;;;22.60;65.90;;;;;;5038656;28;20172;-81
2023/09/07 05:29:39;;;;;;;3.83;2.65;;;22.60;65.90;;;;;;5055825;28;20119;-81
2023/09/07 05:32:05;;;;;;;3.15;2.50;;;22.60;66.00;;;;;;5022137;28;20033;-81
2023/09/07 05:34:32;;;;;;;2.75;2.25;;;22.50;65.90;;;;;;5021937;28;20060;-81
2023/09/07 05:36:58;;;;;;;3.45;2.55;;;22.50;65.90;;;;;;5038072;28;20094;-80
2023/09/07 05:39:23;;;;;;;3.13;2.47;;;22.50;66.00;;;;;;5021772;28;20119;-80
2023/09/07 05:41:49;;;;;;;2.92;2.40;;;22.50;66.00;;;;;;5022209;28;20029;-83
2023/09/07 05:44:15;;;;;;;3.25;2.55;;;22.50;66.00;;;;;;5022561;28;20033;-80
2023/09/07 05:46:42;;;;;;;3.70;2.70;;;22.40;66.00;;;;;;5038194;28;20076;-80
2023/09/07 05:49:08;;;;;;;3.15;2.20;;;22.40;66.00;;;;;;5055685;28;20039;-81
2023/09/07 05:51:34;;;;;;;3.92;2.70;;;22.40;66.00;;;;;;5038029;28;20469;-81
2023/09/07 05:54:00;;;;;;;2.60;2.40;;;22.40;66.10;;;;;;5054321;28;20236;-81
2023/09/07 05:56:25;;;;;;;3.17;2.85;;;22.30;66.10;;;;;;5054886;28;20462;-81
2023/09/07 05:58:51;;;;;;;3.28;2.70;;;22.30;66.10;;;;;;5037982;28;20040;-81
2023/09/07 06:01:17;;;;;;;2.97;2.28;;;22.30;66.10;;;;;;5038069;28;20033;-81
2023/09/07 06:03:43;;;;;;;3.67;2.63;;;22.30;66.20;;;;;;5038618;28;20390;-80
2023/09/07 06:06:09;;;;;;;3.78;2.65;;;22.30;66.20;;;;;;5060295;28;20048;-80
2023/09/07 06:08:34;;;;;;;2.92;2.22;;;22.30;66.20;;;;;;5061573;28;20025;-81
2023/09/07 06:11:00;;;;;;;3.65;2.60;;;22.30;66.20;;;;;;5043363;28;20029;-81
2023/09/07 06:13:27;;;;;;;3.47;2.38;;;22.30;66.20;;;;;;5040109;28;20025;-81
2023/09/07 06:15:53;;;;;;;2.45;2.13;;;22.30;66.20;;;;;;5038321;28;20041;-81
2023/09/07 06:18:19;;;;;;;3.55;2.40;;;22.30;66.20;;;;;;5037472;28;20203;-80
2023/09/07 06:20:45;;;;;;;3.40;2.50;;;22.20;66.20;;;;;;5037729;28;20124;-81
2023/09/07 06:23:11;;;;;;;3.15;2.63;;;22.30;66.30;;;;;;5037703;28;20052;-81
2023/09/07 06:25:37;;;;;;;3.80;2.55;;;22.20;66.30;;;;;;5037132;28;20127;-80
2023/09/07 06:28:03;;;;;;;3.28;2.45;;;22.20;66.30;;;;;;5037743;28;20124;-81
2023/09/07 06:30:29;;;;;;;4.90;2.75;;;22.20;67.00;;;;;;5038144;28;20029;-81
2023/09/07 06:32:56;;;;;;;3.90;2.72;;;22.20;66.40;;;;;;5053731;28;20033;-81
2023/09/07 06:35:24;;;;;;;3.20;2.50;;;22.20;66.40;;;;;;5037613;28;20029;-82
2023/09/07 06:37:49;;;;;;;3.97;2.78;;;22.20;66.50;;;;;;5037991;28;20381;-81
2023/09/07 06:40:19;;;;;;;3.30;2.60;;;22.10;66.40;;;;;;5037379;28;20052;-82
2023/09/07 06:42:46;;;;;;;4.00;2.80;;;22.20;66.50;;;;;;5037628;28;20082;-81
2023/09/07 06:45:15;;;;;;;3.33;2.60;;;22.20;66.50;;;;;;5037235;28;20048;-81
2023/09/07 06:47:41;;;;;;;4.05;3.13;;;22.20;66.50;;;;;;5053980;28;20044;-83
2023/09/07 06:50:08;;;;;;;3.05;2.65;;;22.10;66.50;;;;;;5020890;28;20484;-83
2023/09/07 06:52:34;;;;;;;3.50;2.63;;;22.20;66.50;;;;;;5053962;28;20037;-83
2023/09/07 06:55:00;;;;;;;3.22;2.50;;;22.20;66.50;;;;;;5037351;28;20078;-83
2023/09/07 06:57:25;;;;;;;3.63;2.58;;;22.10;66.50;;;;;;5021390;28;20037;-83
2023/09/07 06:59:52;;;;;;;3.25;2.55;;;22.10;66.50;;;;;;5038263;28;20379;-83
2023/09/07 07:02:18;;;;;;;3.72;2.78;;;22.10;66.60;;;;;;5040561;28;20117;-83
2023/09/07 07:04:46;;;;;;;3.60;2.75;;;22.10;66.60;;;;;;5040877;28;20393;-83
2023/09/07 07:07:13;;;;;;;3.65;2.55;;;22.20;66.80;;;;;;5037385;28;20045;-82
2023/09/07 07:09:39;;;;;;;3.15;2.50;;;22.10;66.70;;;;;;5036975;28;20047;-83
2023/09/07 07:12:05;;;;;;;3.35;2.67;;;22.20;66.70;;;;;;5036989;28;20120;-83
2023/09/07 07:14:31;;;;;;;2.47;2.25;;;22.20;66.70;;;;;;5036899;28;20032;-83
2023/09/07 07:16:56;;;;;;;3.40;2.63;;;22.20;66.70;;;;;;5020352;28;20033;-83
2023/09/07 07:19:23;;;;;;;3.45;2.70;;;22.10;66.70;;;;;;5054679;28;20060;-83
2023/09/07 07:21:51;;;;;;;3.65;2.85;;;22.20;66.70;;;;;;5053093;28;20105;-83
2023/09/07 07:24:17;;;;;;;3.53;2.50;;;22.20;66.70;;;;;;5020222;28;20060;-82
2023/09/07 07:26:44;;;;;;;3.10;2.50;;;22.10;66.70;;;;;;5020157;28;20040;-83
2023/09/07 07:29:10;;;;;;;3.33;2.58;;;22.10;66.70;;;;;;5020655;28;20124;-82
2023/09/07 07:31:36;;;;;;;3.17;2.60;;;22.20;66.70;;;;;;5036641;28;20128;-82
2023/09/07 07:34:02;;;;;;;3.65;2.65;;;22.20;66.80;;;;;;5053085;28;20051;-82
2023/09/07 07:36:28;;;;;;;3.80;2.65;;;22.20;66.80;;;;;;5019853;28;20094;-82
2023/09/07 07:38:54;;;;;;;3.35;2.45;;;22.20;66.70;;;;;;5036468;28;20029;-82
2023/09/07 07:41:20;;;;;;;3.15;2.55;;;22.20;66.80;;;;;;5053168;28;20025;-83
2023/09/07 07:43:46;;;;;;;2.95;2.30;;;22.20;66.80;;;;;;5042265;28;20178;-83
2023/09/07 07:46:15;;;;;;;3.13;2.47;;;22.20;66.80;;;;;;5053554;28;20067;-83
2023/09/07 07:48:42;;;;;;;3.63;2.70;;;22.20;66.80;;;;;;5034780;28;20531;-83
2023/09/07 07:51:08;;;;;;;3.15;2.45;;;22.30;66.80;;;;;;5048918;28;20064;-83
2023/09/07 07:53:35;;;;;;;3.53;2.70;;;22.30;66.90;;;;;;5061391;28;20041;-82
2023/09/07 07:56:01;;;;;;;3.35;2.63;;;22.30;66.90;;;;;;5040981;28;20123;-82
2023/09/07 07:58:26;;;;;;;4.22;2.88;;;22.30;66.90;;;;;;5053857;28;20060;-83
2023/09/07 08:00:53;;;;;;;3.15;2.53;;;22.30;66.90;;;;;;5036106;28;20033;-82
2023/09/07 08:03:25;;;;;;;3.67;2.90;;;22.30;66.90;;;;;;5036976;28;20032;-82
2023/09/07 08:05:51;;;;;;;2.97;2.47;;;22.30;66.80;;;;;;5052560;28;20469;-82
2023/09/07 08:08:18;;;;;;;3.72;2.60;;;22.30;66.90;;;;;;5052518;28;20103;-82
2023/09/07 08:10:45;;;;;;;3.92;2.83;;;22.30;66.90;;;;;;5019956;28;20156;-83
2023/09/07 08:13:13;;;;;;;3.33;2.58;;;22.30;66.80;;;;;;5052682;28;20083;-82
2023/09/07 08:15:39;;;;;;;3.75;2.67;;;22.40;66.90;;;;;;5035630;28;20040;-82
2023/09/07 08:18:06;;;;;;;4.20;2.78;;;22.40;66.90;;;;;;5019822;28;20044;-83
2023/09/07 08:20:32;;;;;;;3.63;2.53;;;22.40;66.90;;;;;;5052420;28;20528;-83
2023/09/07 08:22:58;;;;;;;4.07;2.88;;;22.40;67.00;;;;;;5036653;28;20037;-83
2023/09/07 08:25:27;;;;;;;4.13;2.78;;;22.40;66.90;;;;;;5036124;28;20083;-82
2023/09/07 08:27:57;;;;;;;3.42;2.58;;;22.50;67.00;;;;;;5052277;28;20041;-82
2023/09/07 08:30:24;;;;;;;5.88;2.72;;;22.50;67.00;;;;;;5052408;28;20036;-81
2023/09/07 08:32:51;;;;;;;4.30;3.05;;;22.50;67.00;;;;;;5020141;28;20037;-82
2023/09/07 08:35:17;;;;;;;3.28;2.55;;;22.50;67.70;;;;;;5039435;28;20362;-81
2023/09/07 08:37:43;;;;;;;3.80;2.70;;;22.50;67.00;;;;;;5039632;28;20381;-82
2023/09/07 08:40:11;;;;;;;4.03;3.13;;;22.60;67.00;;;;;;5039787;28;20037;-82
2023/09/07 08:42:37;;;;;;;3.95;2.75;;;22.60;66.90;;;;;;5056387;28;20033;-82
2023/09/07 08:45:06;;;;;;;3.60;2.83;;;22.70;66.90;;;;;;5057336;28;20446;-82
2023/09/07 08:47:34;;;;;;;4.05;2.65;;;22.70;66.80;;;;;;5038831;28;20049;-81
2023/09/07 08:50:04;;;;;;;3.63;2.75;;;22.80;66.70;;;;;;5039967;28;20112;-82
2023/09/07 08:52:30;;;;;;;3.35;2.63;;;22.80;66.60;;;;;;5039636;28;20041;-82
2023/09/07 08:54:58;;;;;;;3.13;2.45;;;22.90;66.50;;;;;;5039919;28;20466;-82
2023/09/07 08:57:26;;;;;;;4.25;3.10;;;22.90;66.40;;;;;;5055728;28;20473;-81
2023/09/07 08:59:53;;;;;;;4.32;2.97;;;23.00;66.30;;;;;;5038942;28;20111;-82
2023/09/07 09:02:19;;;;;;;4.68;2.90;;;23.10;66.30;;;;;;5055666;28;20037;-81
2023/09/07 09:04:44;;;;;;;4.55;3.00;;;23.10;66.10;;;;;;5038896;28;20090;-82
2023/09/07 09:07:10;;;;;;;3.47;2.72;;;23.20;66.10;;;;;;5023617;28;20111;-81
2023/09/07 09:09:38;;;;;;;4.80;2.90;;;23.30;66.00;;;;;;5039794;28;20520;-82
2023/09/07 09:12:11;;;;;;;4.35;2.92;;;23.40;66.00;;;;;;5044098;28;20056;-81
2023/09/07 09:14:46;;;;;;;3.25;2.60;;;23.50;66.00;;;;;;5063459;28;20024;-82
2023/09/07 09:17:16;;;;;;;3.05;2.47;;;23.50;65.80;;;;;;5063185;28;20131;-83
2023/09/07 09:19:43;;;;;;;3.55;2.90;;;23.60;65.80;;;;;;5040258;28;20508;-82
2023/09/07 09:22:11;;;;;;;4.20;2.95;;;23.70;65.80;;;;;;5039254;28;20021;-82
2023/09/07 09:24:37;;;;;;;3.45;2.78;;;23.80;65.70;;;;;;5056292;28;20028;-82
2023/09/07 09:27:04;;;;;;;3.95;2.88;;;23.90;65.70;;;;;;5039297;28;20382;-83
2023/09/07 09:29:33;;;;;;;3.53;2.67;;;24.00;65.70;;;;;;5038609;28;20029;-82
2023/09/07 09:32:06;;;;;;;4.38;2.83;;;24.00;65.60;;;;;;5055419;28;20033;-83
2023/09/07 09:34:34;;;;;;;3.30;2.42;;;24.20;65.60;;;;;;5056417;28;20021;-82
2023/09/07 09:37:01;;;;;;;3.30;2.58;;;24.20;65.50;;;;;;5054860;28;20081;-82
2023/09/07 09:39:27;;;;;;;4.15;2.70;;;24.40;65.50;;;;;;5023208;28;20518;-82
2023/09/07 09:41:53;;;;;;;3.45;2.75;;;24.40;65.50;;;;;;5040359;28;20124;-82
2023/09/07 09:44:25;;;;;;;3.25;2.45;;;24.50;65.50;;;;;;5060924;28;20398;-82
2023/09/07 09:46:54;;;;;;;3.78;2.90;;;24.60;65.50;;;;;;5055140;28;20045;-82
2023/09/07 09:49:21;;;;;;;3.70;2.72;;;24.70;65.40;;;;;;5055264;28;20033;-82
2023/09/07 09:51:51;;;;;;;3.47;2.55;;;24.80;65.30;;;;;;5055014;28;20408;-82
2023/09/07 09:54:21;;;;;;;3.15;2.65;;;24.90;65.30;;;;;;5054435;28;20025;-81
2023/09/07 09:56:47;;;;;;;2.60;2.28;;;25.00;65.20;;;;;;5054781;28;20117;-82
2023/09/07 09:59:16;;;;;;;3.20;2.50;;;25.10;65.10;;;;;;5055801;28;20104;-81
2023/09/07 10:01:44;;;;;;;4.15;2.85;;;25.20;65.10;;;;;;5054302;28;20067;-82
2023/09/07 10:04:14;;;;;;;3.60;2.25;;;25.30;65.10;;;;;;5037616;28;20082;-82
2023/09/07 10:06:51;;;;;;;2.50;2.15;;;25.40;65.10;;;;;;5037980;28;20033;-82
2023/09/07 10:09:18;;;;;;;3.40;2.25;;;25.50;65.10;;;;;;5054698;28;20120;-82
2023/09/07 10:11:50;;;;;;;3.17;2.40;;;25.60;65.00;;;;;;5054462;28;20025;-81
2023/09/07 10:14:16;;;;;;;2.67;2.22;;;25.70;65.10;;;;;;5037601;28;20068;-82
2023/09/07 10:16:43;;;;;;;3.03;2.40;;;25.80;65.10;;;;;;5038017;28;20068;-81
2023/09/07 10:19:18;;;;;;;3.78;2.45;;;25.90;65.10;;;;;;5021149;28;20041;-82
2023/09/07 10:21:44;;;;;;;2.63;2.13;;;26.00;65.20;;;;;;5054035;28;20104;-82
2023/09/07 10:24:10;;;;;;;2.67;2.25;;;26.10;65.10;;;;;;5054898;28;20025;-83
2023/09/07 10:26:37;;;;;;;3.40;2.80;;;26.20;65.10;;;;;;5054360;28;20363;-83
2023/09/07 10:29:03;;;;;;;3.05;2.30;;;26.30;65.20;;;;;;5054351;28;20025;-83
2023/09/07 10:31:30;;;;;;;3.22;2.25;;;26.40;65.20;;;;;;5021126;28;20116;-83
2023/09/07 10:33:56;;;;;;;3.42;2.50;;;26.40;65.20;;;;;;5037786;28;20021;-82
2023/09/07 10:36:22;;;;;;;3.13;2.42;;;26.60;65.40;;;;;;5054434;28;20056;-83
2023/09/07 10:38:49;;;;;;;3.22;2.72;;;26.70;65.50;;;;;;5054200;28;20036;-83
2023/09/07 10:41:14;;;;;;;3.25;2.40;;;26.80;65.50;;;;;;5056339;28;20047;-82
2023/09/07 10:43:49;;;;;;;2.85;2.28;;;26.80;65.40;;;;;;5053991;28;20470;-82
2023/09/07 10:46:14;;;;;;;2.40;2.20;;;26.90;65.50;;;;;;5053798;28;20049;-83
2023/09/07 10:48:40;;;;;;;2.72;2.20;;;27.00;65.30;;;;;;5053834;28;20036;-83
2023/09/07 10:51:06;;;;;;;3.33;2.30;;;27.10;65.40;;;;;;5020800;28;20432;-82
2023/09/07 10:53:32;;;;;;;2.30;2.10;;;27.20;65.50;;;;;;5053599;28;20037;-83
2023/09/07 10:56:02;;;;;;;2.88;2.15;;;27.30;65.60;;;;;;5054163;28;20025;-83
2023/09/07 10:58:33;;;;;;;3.33;2.50;;;27.30;65.60;;;;;;5036959;28;20039;-83
2023/09/07 11:01:00;;;;;;;3.17;2.40;;;27.40;65.70;;;;;;5053693;28;20025;-82
2023/09/07 11:03:27;;;;;;;2.63;2.22;;;27.40;65.70;;;;;;5053631;28;20021;-83
2023/09/07 11:06:08;;;;;;;2.25;2.00;;;27.50;65.90;;;;;;5054450;28;20094;-83
2023/09/07 11:08:34;;;;;;;2.67;1.92;;;27.50;66.10;;;;;;5053386;28;20436;-83
2023/09/07 11:11:06;;;;;;;3.10;2.10;;;27.60;66.10;;;;;;5036390;28;20033;-82
2023/09/07 11:13:32;;;;;;;2.47;2.13;;;27.60;66.30;;;;;;5036722;28;20397;-83
2023/09/07 11:15:59;;;;;;;2.40;2.00;;;27.70;66.30;;;;;;5037891;28;20044;-83
2023/09/07 11:18:25;;;;;;;3.45;2.63;;;27.70;66.40;;;;;;5054066;28;20033;-83
2023/09/07 11:20:52;;;;;;;2.60;2.17;;;27.70;66.50;;;;;;5036214;28;20109;-83
2023/09/07 11:23:20;;;;;;;3.25;2.60;;;27.80;66.70;;;;;;5036444;28;20056;-82
2023/09/07 11:25:51;;;;;;;4.20;2.30;;;27.80;66.60;;;;;;5054729;28;20064;-84
2023/09/07 11:28:19;;;;;;;2.95;2.15;;;27.90;66.60;;;;;;5052688;28;20078;-83
2023/09/07 11:30:55;;;;;;;2.70;2.25;;;27.90;66.40;;;;;;5036725;28;20110;-83
2023/09/07 11:33:22;;;;;;;2.45;2.13;;;27.90;66.30;;;;;;5053291;28;20469;-83
2023/09/07 11:35:51;;;;;;;3.17;2.50;;;27.90;66.10;;;;;;5036602;28;20035;-83
2023/09/07 11:38:19;;;;;;;2.80;2.08;;;28.00;66.20;;;;;;5053687;28;20037;-84
2023/09/07 11:40:45;;;;;;;3.47;2.35;;;28.00;66.30;;;;;;5052884;28;20486;-83
2023/09/07 11:43:16;;;;;;;2.55;2.15;;;28.00;66.40;;;;;;5036440;28;20032;-83
2023/09/07 11:45:43;;;;;;;2.70;2.10;;;28.10;66.50;;;;;;5036725;28;20033;-83
2023/09/07 11:48:10;;;;;;;2.80;2.08;;;28.10;66.60;;;;;;5036408;28;20033;-83
2023/09/07 11:50:37;;;;;;;2.42;2.03;;;28.10;66.70;;;;;;5036419;28;20053;-83
2023/09/07 11:53:03;;;;;;;2.70;2.20;;;28.10;66.80;;;;;;5036455;28;20033;-82
2023/09/07 11:55:29;;;;;;;2.53;1.98;;;28.10;66.80;;;;;;5020482;28;20029;-83
2023/09/07 11:57:55;;;;;;;2.63;2.30;;;28.10;66.90;;;;;;5053771;28;20473;-83
2023/09/07 12:00:22;;;;;;;2.97;2.30;;;28.20;67.00;;;;;;5063068;28;20025;-83
2023/09/07 12:02:48;;;;;;;2.40;2.15;;;28.20;67.10;;;;;;5053193;28;20029;-83
2023/09/07 12:05:15;;;;;;;2.55;2.20;;;28.20;67.10;;;;;;5053384;28;20029;-83
2023/09/07 12:07:43;;;;;;;2.22;2.03;;;28.20;67.10;;;;;;5046838;28;20029;-83
2023/09/07 12:10:13;;;;;;;2.28;2.08;;;28.30;67.10;;;;;;5047885;28;20051;-83
2023/09/07 12:12:43;;;;;;;3.25;2.03;;;28.30;67.10;;;;;;5060526;28;20058;-83
2023/09/07 12:15:13;;;;;;;3.42;2.30;;;28.30;67.10;;;;;;5059676;28;20033;-82
2023/09/07 12:17:41;;;;;;;2.47;2.03;;;28.30;67.10;;;;;;5047786;28;20036;-83
2023/09/07 12:20:10;;;;;;;2.63;2.13;;;28.30;67.00;;;;;;5051176;28;20127;-83
2023/09/07 12:22:39;;;;;;;2.33;2.05;;;28.30;66.90;;;;;;5050078;28;20112;-84
2023/09/07 12:25:15;;;;;;;2.97;2.30;;;28.40;66.90;;;;;;5062467;28;20025;-83
2023/09/07 12:27:43;;;;;;;2.40;2.20;;;28.30;66.80;;;;;;5035809;28;20037;-83
2023/09/07 12:30:12;;;;;;;2.85;1.98;;;28.40;66.80;;;;;;5060250;28;20032;-83
2023/09/07 12:32:44;;;;;;;2.50;1.80;;;28.40;66.70;;;;;;5041775;28;20029;-83
2023/09/07 12:35:09;;;;;;;2.90;2.28;;;28.40;66.60;;;;;;5039765;28;20029;-83
2023/09/07 12:37:36;;;;;;;2.38;1.73;;;28.40;66.50;;;;;;5040512;28;20470;-82
2023/09/07 12:40:14;;;;;;;3.00;2.13;;;28.40;66.40;;;;;;5056187;28;20028;-83
2023/09/07 12:42:47;;;;;;;3.08;2.05;;;28.50;66.40;;;;;;5041752;28;20393;-83
2023/09/07 12:45:16;;;;;;;2.55;2.13;;;28.50;66.20;;;;;;5023187;28;20026;-83
2023/09/07 12:47:42;;;;;;;3.03;2.20;;;28.50;66.00;;;;;;5057397;28;20041;-83